Time;durP1;ratioP1;P1;durP2;ratioP2;P2;SDS_P1;SDS_P2;PMS_P1;PMS_P2;Temp;Humidity;BMP_temperature;BMP_pressure;BME280_temperature;BME280_humidity;BME280_pressure;Samples;Min_cycle;Max_cycle;Signal;HPM_P1;HPM_P2
2022/08/22 00:02:33;;;;;;;;;2.00;2.00;;;;;21.05;70.75;100597.69;4994242;28;45589;-75
2022/08/22 00:05:17;;;;;;;;;2.67;2.67;;;;;21.03;70.54;100591.53;4994270;28;45729;-74
2022/08/22 00:08:09;;;;;;;;;2.00;2.00;;;;;21.03;70.72;100590.66;4994448;28;45647;-74
2022/08/22 00:11:02;;;;;;;;;3.00;2.00;;;;;21.05;71.14;100580.88;5008660;28;45502;-73
2022/08/22 00:13:46;;;;;;;;;3.33;2.67;;;;;21.07;71.05;100584.41;4994812;28;45526;-75
2022/08/22 00:16:15;;;;;;;;;3.00;3.00;;;;;20.96;70.81;100573.91;5010713;28;45522;-73
2022/08/22 00:18:47;;;;;;;;;4.67;3.00;;;;;21.03;70.87;100590.66;4994601;28;45798;-73
2022/08/22 00:21:15;;;;;;;;;3.00;3.00;;;;;21.08;70.43;100582.63;4991994;28;45613;-74
2022/08/22 00:24:14;;;;;;;;;2.00;2.00;;;;;21.02;71.62;100567.63;4999950;28;46198;-77
2022/08/22 00:26:49;;;;;;;;;3.00;3.00;;;;;20.95;71.90;100579.22;4993652;28;45566;-77
2022/08/22 00:29:21;;;;;;;;;4.33;3.00;;;;;20.95;71.78;100580.13;4991610;28;45547;-73
2022/08/22 00:32:17;;;;;;;;;3.00;2.50;;;;;21.05;71.30;100587.06;4992099;28;45610;-73
2022/08/22 00:35:00;;;;;;;;;4.67;3.67;;;;;21.03;71.47;100577.38;4961432;28;45253;-74
2022/08/22 00:37:40;;;;;;;;;5.00;3.00;;;;;20.98;70.93;100555.28;5009132;28;45551;-76
2022/08/22 00:40:06;;;;;;;;;3.33;2.33;;;;;20.99;72.00;100583.59;4993353;28;45618;-75
2022/08/22 00:43:12;;;;;;;;;2.33;2.33;;;;;20.91;72.27;100580.16;4994112;28;45536;-74
2022/08/22 00:46:14;;;;;;;;;3.00;3.00;;;;;20.94;72.16;100581.00;4993819;28;45467;-75
2022/08/22 00:48:59;;;;;;;;;4.33;4.00;;;;;20.97;71.94;100582.72;4994164;28;45516;-76
2022/08/22 00:51:37;;;;;;;;;4.00;4.00;;;;;20.81;71.91;100569.66;4993659;28;46100;-76
2022/08/22 00:55:04;;;;;;;;;4.00;3.00;;;;;20.91;72.30;100572.19;4994687;28;45514;-73
2022/08/22 00:57:47;;;;;;;;;5.33;4.00;;;;;20.93;71.80;100575.69;4943048;28;45738;-73
2022/08/22 01:00:20;;;;;;;;;3.33;2.00;;;;;20.95;71.40;100568.59;4946228;28;45577;-75
2022/08/22 01:02:55;;;;;;;;;3.00;3.00;;;;;20.98;71.04;100561.47;4978452;28;46596;-77
2022/08/22 01:05:38;;;;;;;;;3.00;3.00;;;;;20.94;71.59;100561.53;4993267;28;45427;-73
2022/08/22 01:08:32;;;;;;;;;5.67;4.00;;;;;20.91;71.89;100556.25;4993732;28;45695;-73
2022/08/22 01:11:16;;;;;;;;;3.00;3.00;;;;;20.96;71.46;100557.09;4993172;28;45571;-77
2022/08/22 01:13:54;;;;;;;;;4.00;3.00;;;;;20.97;72.00;100543.81;4992680;28;45395;-73
2022/08/22 01:16:54;;;;;;;;;3.00;3.00;;;;;20.89;72.29;100539.47;4992912;28;45411;-74
2022/08/22 01:19:39;;;;;;;;;3.00;3.00;;;;;20.85;72.21;100550.16;4989790;28;45507;-74
2022/08/22 01:22:25;;;;;;;;;3.00;3.00;;;;;20.88;72.60;100543.91;4992117;28;45562;-73
2022/08/22 01:25:18;;;;;;;;;2.67;2.67;;;;;20.86;72.92;100535.94;4991084;28;46348;-73
2022/08/22 01:28:21;;;;;;;;;4.00;4.00;;;;;20.84;72.70;100537.75;4991455;28;45598;-77
2022/08/22 01:31:22;;;;;;;;;4.00;3.67;;;;;20.81;72.63;100542.22;4992963;28;45588;-74
2022/08/22 01:34:15;;;;;;;;;3.33;3.33;;;;;20.85;72.66;100530.69;4992888;28;45645;-74
2022/08/22 01:37:09;;;;;;;;;4.00;3.67;;;;;20.90;72.49;100527.97;4990021;28;45560;-73
2022/08/22 01:39:53;;;;;;;;;5.00;4.00;;;;;20.93;72.53;100533.22;4992224;28;45492;-73
2022/08/22 01:42:36;;;;;;;;;3.00;3.00;;;;;20.90;72.00;100520.88;4993200;28;45498;-73
2022/08/22 01:45:14;;;;;;;;;4.00;3.67;;;;;20.97;71.81;100519.00;5019649;28;45626;-76
2022/08/22 01:48:18;;;;;;;;;5.67;5.00;;;;;20.97;72.34;100519.91;4989489;28;45690;-73
2022/08/22 01:50:56;;;;;;;;;4.33;4.33;;;;;20.85;72.49;100502.34;4988062;28;45500;-73
2022/08/22 01:53:42;;;;;;;;;5.67;5.00;;;;;21.00;71.79;100516.31;4995777;28;45364;-73
2022/08/22 01:56:14;;;;;;;;;5.33;4.00;;;;;20.80;72.04;100488.25;4998462;28;45811;-74
2022/08/22 01:59:02;;;;;;;;;5.00;4.00;;;;;20.99;72.36;100530.47;4998362;28;46472;-74
2022/08/22 02:02:06;;;;;;;;;4.00;4.00;;;;;20.95;72.38;100532.31;4996890;28;45420;-77
2022/08/22 02:04:37;;;;;;;;;5.00;4.00;;;;;20.97;71.54;100519.91;4937654;28;45581;-73
2022/08/22 02:07:30;;;;;;;;;6.33;4.00;;;;;21.01;71.87;100520.75;4984110;28;45625;-73
2022/08/22 02:10:33;;;;;;;;;5.33;5.00;;;;;21.06;71.23;100521.53;4998259;28;45479;-73
2022/08/22 02:13:27;;;;;;;;;4.33;4.00;;;;;21.09;72.00;100515.31;4998721;28;45297;-78
2022/08/22 02:16:07;;;;;;;;;6.67;5.00;;;;;20.93;71.25;100474.78;4982312;28;45443;-73
2022/08/22 02:18:49;;;;;;;;;5.67;5.00;;;;;20.98;71.29;100483.59;4998755;28;45514;-74
2022/08/22 02:21:25;;;;;;;;;6.00;5.00;;;;;21.02;70.89;100482.66;4998155;28;46075;-73
2022/08/22 02:24:01;;;;;;;;;4.33;4.00;;;;;21.05;70.60;100486.16;4995052;28;45670;-73
2022/08/22 02:26:49;;;;;;;;;5.00;5.00;;;;;21.06;70.67;100479.03;4994212;28;45538;-74
2022/08/22 02:29:20;;;;;;;;;6.00;5.00;;;;;21.08;70.19;100481.69;4998466;28;45632;-76
2022/08/22 02:31:59;;;;;;;;;6.67;5.00;;;;;21.16;70.71;100501.91;5012981;28;46314;-73
2022/08/22 02:34:40;;;;;;;;;4.00;4.00;;;;;21.11;70.98;100500.22;4996747;28;45412;-73
2022/08/22 02:37:14;;;;;;;;;5.00;5.00;;;;;21.02;70.89;100491.47;4993660;28;45454;-75
2022/08/22 02:39:55;;;;;;;;;6.33;5.67;;;;;21.10;71.33;100502.00;4998038;28;45557;-73
2022/08/22 02:42:43;;;;;;;;;5.33;5.00;;;;;21.07;70.85;100502.06;4998232;28;45440;-73
2022/08/22 02:45:20;;;;;;;;;5.00;5.00;;;;;21.13;70.54;100498.41;4997876;28;45258;-73
2022/08/22 02:48:10;;;;;;;;;5.33;4.33;;;;;21.16;70.10;100491.28;4998271;28;45298;-73
2022/08/22 02:50:59;;;;;;;;;5.67;5.67;;;;;21.17;70.32;100495.72;5013694;28;45580;-73
2022/08/22 02:53:49;;;;;;;;;5.00;5.00;;;;;21.21;69.82;100491.25;4996561;28;46683;-73
2022/08/22 02:56:25;;;;;;;;;6.00;5.00;;;;;21.20;70.41;100493.00;4997991;28;45551;-77
2022/08/22 02:58:53;;;;;;;;;5.33;5.33;;;;;21.08;71.41;100474.59;4998293;28;45464;-77
2022/08/22 03:01:25;;;;;;;;;6.33;6.00;;;;;21.12;71.59;100497.53;4998613;28;45560;-76
2022/08/22 03:03:51;;;;;;;;;4.67;4.67;;;;;21.14;71.87;100510.81;4997726;28;46496;-73
2022/08/22 03:06:35;;;;;;;;;5.67;4.67;;;;;21.18;70.83;100505.44;4997384;28;45413;-76
2022/08/22 03:09:07;;;;;;;;;6.00;5.00;;;;;21.16;71.79;100501.03;4994798;28;45482;-74
2022/08/22 03:11:38;;;;;;;;;4.33;4.00;;;;;21.12;71.02;100497.53;4996993;28;46600;-73
2022/08/22 03:14:23;;;;;;;;;4.33;4.33;;;;;21.08;72.86;100497.63;4999778;28;46334;-76
2022/08/22 03:17:18;;;;;;;;;7.00;7.00;;;;;21.08;71.76;100501.16;5011573;28;45364;-73
2022/08/22 03:20:12;;;;;;;;;7.00;6.00;;;;;20.95;71.10;100475.66;4994191;28;45572;-73
2022/08/22 03:22:58;;;;;;;;;6.00;6.00;;;;;21.04;71.21;100497.66;4994495;28;45505;-76
2022/08/22 03:25:33;;;;;;;;;7.00;6.00;;;;;21.00;71.59;100492.41;4995056;28;45510;-73
2022/08/22 03:28:05;;;;;;;;;4.33;4.00;;;;;20.85;71.49;100470.50;4994021;28;45472;-74
2022/08/22 03:30:57;;;;;;;;;4.67;4.00;;;;;20.92;71.03;100489.84;4996806;28;45541;-73
2022/08/22 03:33:29;;;;;;;;;6.33;6.00;;;;;20.76;71.61;100459.13;5020124;28;45597;-74
2022/08/22 03:36:24;;;;;;;;;5.67;5.67;;;;;20.91;72.09;100490.78;4996665;28;46525;-76
2022/08/22 03:39:29;;;;;;;;;5.00;5.00;;;;;20.90;71.91;100482.81;4984247;28;45596;-76
2022/08/22 03:42:18;;;;;;;;;6.00;6.00;;;;;20.88;71.59;100485.50;4973320;28;45672;-73
2022/08/22 03:44:53;;;;;;;;;5.33;5.00;;;;;20.88;71.49;100485.50;4994643;28;45490;-73
2022/08/22 03:48:00;;;;;;;;;6.00;5.00;;;;;20.77;70.55;100467.06;4995511;28;45484;-77
2022/08/22 03:50:34;;;;;;;;;5.33;5.33;;;;;20.85;70.79;100490.84;4991511;28;45716;-74
2022/08/22 03:53:32;;;;;;;;;8.00;7.33;;;;;20.79;71.06;100485.59;5011696;28;45444;-76
2022/08/22 03:56:27;;;;;;;;;6.00;4.67;;;;;20.79;70.11;100481.19;4995672;28;45481;-76
2022/08/22 03:59:33;;;;;;;;;4.00;4.00;;;;;20.69;69.06;100458.31;4995358;28;45531;-76
2022/08/22 04:02:38;;;;;;;;;6.00;5.33;;;;;20.56;69.77;100446.06;4995890;28;45428;-76
2022/08/22 04:05:22;;;;;;;;;4.67;3.67;;;;;20.75;69.33;100474.16;4993816;28;45412;-75
2022/08/22 04:08:02;;;;;;;;;5.33;5.00;;;;;20.70;68.94;100473.34;4993021;28;45731;-75
2022/08/22 04:10:53;;;;;;;;;5.67;5.00;;;;;20.71;69.22;100476.88;4994602;28;45696;-75
2022/08/22 04:13:38;;;;;;;;;5.33;5.00;;;;;20.60;69.23;100459.31;4957535;28;45431;-76
2022/08/22 04:16:42;;;;;;;;;4.33;4.00;;;;;20.52;68.80;100441.69;4992248;28;45466;-76
2022/08/22 04:19:22;;;;;;;;;4.67;4.67;;;;;20.66;69.01;100469.84;4991336;28;45463;-77
2022/08/22 04:22:25;;;;;;;;;3.67;3.67;;;;;20.64;69.01;100458.38;4993524;28;45498;-77
2022/08/22 04:25:12;;;;;;;;;4.33;3.00;;;;;20.78;68.75;100479.41;4975494;28;45624;-77
2022/08/22 04:27:56;;;;;;;;;3.00;3.00;;;;;20.58;68.92;100438.97;4994855;28;45542;-76
2022/08/22 04:30:43;;;;;;;;;4.00;4.00;;;;;20.77;69.47;100468.81;5010618;28;45654;-77
2022/08/22 04:33:18;;;;;;;;;4.00;4.00;;;;;20.85;68.84;100473.16;4993986;28;46252;-74
2022/08/22 04:36:00;;;;;;;;;4.00;4.00;;;;;20.86;69.65;100466.91;4995267;28;45526;-75
2022/08/22 04:38:41;;;;;;;;;4.00;4.00;;;;;20.90;68.76;100472.19;4992749;28;45431;-75
2022/08/22 04:41:23;;;;;;;;;3.67;3.00;;;;;20.77;69.25;100445.81;4993153;28;45499;-76
2022/08/22 04:44:07;;;;;;;;;4.00;4.00;;;;;20.31;69.34;100365.91;4993670;28;45435;-76
2022/08/22 04:47:27;;;;;;;;;4.33;4.00;;;;;20.88;68.58;100463.38;4993508;28;45493;-76
2022/08/22 04:50:07;;;;;;;;;5.33;4.00;;;;;20.92;69.47;100460.66;4908411;28;46840;-76
2022/08/22 04:52:54;;;;;;;;;4.00;4.00;;;;;20.92;69.45;100475.72;4994606;28;45365;-76
2022/08/22 04:55:49;;;;;;;;;4.33;4.33;;;;;20.90;70.07;100478.38;4995077;28;45556;-76
2022/08/22 04:58:35;;;;;;;;;5.00;4.00;;;;;20.87;71.56;100483.75;4987605;28;45323;-76
2022/08/22 05:01:24;;;;;;;;;5.00;4.00;;;;;20.86;71.76;100484.63;4994823;28;45563;-77
2022/08/22 05:03:59;;;;;;;;;6.67;5.33;;;;;20.70;71.88;100461.84;4993472;28;45458;-77
2022/08/22 05:06:28;;;;;;;;;7.00;6.33;;;;;20.85;73.24;100485.56;4992793;28;46706;-75
2022/08/22 05:09:01;;;;;;;;;4.00;3.33;;;;;20.77;72.78;100482.09;4995259;28;45475;-77
2022/08/22 05:11:29;;;;;;;;;4.67;4.67;;;;;20.79;72.34;100477.63;4993001;28;45543;-75
2022/08/22 05:14:04;;;;;;;;;5.00;4.67;;;;;20.78;72.90;100478.56;4995466;28;45427;-76
2022/08/22 05:16:37;;;;;;;;;6.00;5.00;;;;;20.74;72.24;100474.19;5017179;28;46460;-76
2022/08/22 05:19:18;;;;;;;;;5.00;4.67;;;;;20.79;73.24;100491.81;4991879;28;45442;-75
2022/08/22 05:21:46;;;;;;;;;4.67;4.67;;;;;20.73;72.76;100486.59;4994756;28;45465;-77
2022/08/22 05:24:35;;;;;;;;;6.00;6.00;;;;;20.74;73.96;100506.03;4993636;28;45530;-77
2022/08/22 05:27:10;;;;;;;;;6.00;6.00;;;;;20.53;74.08;100469.97;5019056;28;45716;-75
2022/08/22 05:29:41;;;;;;;;;5.67;5.33;;;;;20.73;73.93;100504.25;4996996;28;45566;-77
2022/08/22 05:32:18;;;;;;;;;7.33;5.33;;;;;20.57;73.43;100472.59;4997581;28;45547;-74
2022/08/22 05:34:46;;;;;;;;;3.67;3.67;;;;;20.54;73.21;100461.13;4994332;28;45456;-76
2022/08/22 05:37:38;;;;;;;;;5.00;4.67;;;;;20.76;73.61;100505.13;4995220;28;45502;-77
2022/08/22 05:40:06;;;;;;;;;5.00;5.00;;;;;20.65;73.81;100483.13;5021907;28;45431;-76
2022/08/22 05:42:36;;;;;;;;;3.33;3.00;;;;;20.79;73.25;100502.44;4998338;28;45560;-75
2022/08/22 05:45:05;;;;;;;;;5.00;5.00;;;;;20.78;73.57;100505.09;4998095;28;45482;-76
2022/08/22 05:47:45;;;;;;;;;6.00;6.00;;;;;20.70;73.29;100489.25;4997786;28;46139;-75
2022/08/22 05:50:30;;;;;;;;;4.67;4.33;;;;;20.77;73.72;100500.66;4996294;28;45424;-75
2022/08/22 05:53:14;;;;;;;;;5.33;4.00;;;;;20.79;73.81;100506.84;5013078;28;45491;-74
2022/08/22 05:55:58;;;;;;;;;4.67;4.33;;;;;20.78;73.32;100511.28;4997098;28;45903;-76
2022/08/22 05:58:30;;;;;;;;;4.00;4.00;;;;;20.83;74.15;100511.22;4995146;28;45687;-76
2022/08/22 06:01:19;;;;;;;;;5.00;5.00;;;;;20.85;73.79;100505.00;4998245;28;45389;-76
2022/08/22 06:04:25;;;;;;;;;5.00;5.00;;;;;20.83;73.88;100477.59;4997516;28;45481;-76
2022/08/22 06:07:08;;;;;;;;;3.67;3.67;;;;;20.90;73.59;100493.44;4996346;28;45420;-77
2022/08/22 06:09:54;;;;;;;;;4.00;4.00;;;;;21.03;73.84;100521.59;4997086;28;46305;-76
2022/08/22 06:12:30;;;;;;;;;5.67;5.67;;;;;20.92;74.34;100502.28;5021497;28;45626;-74
2022/08/22 06:15:16;;;;;;;;;3.67;3.00;;;;;21.01;74.01;100503.03;4996626;28;45582;-76
2022/08/22 06:18:05;;;;;;;;;8.33;7.33;;;;;21.04;74.04;100492.34;4997525;28;45495;-77
2022/08/22 06:20:42;;;;;;;;;3.00;3.00;;;;;20.99;73.55;100480.03;4995560;28;45664;-76
2022/08/22 06:23:14;;;;;;;;;2.67;2.67;;;;;21.05;73.80;100496.78;5009871;28;45927;-77
2022/08/22 06:25:45;;;;;;;;;4.00;4.00;;;;;21.05;74.37;100498.56;4996723;28;45317;-77
2022/08/22 06:28:18;;;;;;;;;4.67;4.67;;;;;21.09;74.87;100518.84;4996416;28;45460;-75
2022/08/22 06:30:46;;;;;;;;;6.00;5.00;;;;;21.07;75.11;100525.97;4997466;28;45572;-74
2022/08/22 06:33:17;;;;;;;;;5.00;3.67;;;;;21.11;74.60;100519.72;4996706;28;45728;-77
2022/08/22 06:38:51;;;;;;;;;4.67;3.67;;;;;21.11;74.57;100509.09;4997576;28;45657;-76
2022/08/22 06:41:20;;;;;;;;;2.67;2.00;;;;;21.16;74.51;100517.84;4995763;28;46090;-76
2022/08/22 06:43:53;;;;;;;;;1.00;1.00;;;;;21.19;74.02;100522.28;4995133;28;45507;-77
2022/08/22 06:46:22;;;;;;;;;3.67;2.33;;;;;21.25;74.35;100531.03;4995344;28;45522;-76
2022/08/22 06:48:48;;;;;;;;;4.00;2.67;;;;;21.30;75.11;100530.94;4993819;28;46187;-76
2022/08/22 06:51:17;;;;;;;;;6.00;5.00;;;;;21.43;75.69;100532.56;4994777;28;45602;-75
2022/08/22 06:53:46;;;;;;;;;1.33;1.00;;;;;21.36;73.65;100503.41;4997278;28;45589;-76
2022/08/22 06:56:22;;;;;;;;;2.00;2.00;;;;;21.52;73.19;100518.25;4997567;28;45341;-77
2022/08/22 06:58:53;;;;;;;;;5.00;5.00;;;;;21.57;73.83;100523.50;4994425;28;45420;-77
2022/08/22 07:01:23;;;;;;;;;3.00;2.33;;;;;21.58;73.84;100535.88;5021451;28;46699;-74
2022/08/22 07:03:51;;;;;;;;;4.00;3.00;;;;;21.20;74.10;100477.06;5020136;28;45390;-75
2022/08/22 07:06:22;;;;;;;;;4.00;3.67;;;;;21.64;74.26;100546.41;5003951;28;45587;-76
2022/08/22 07:08:53;;;;;;;;;2.00;2.00;;;;;21.65;74.12;100558.81;4995405;28;45362;-74
2022/08/22 07:11:26;;;;;;;;;2.00;2.00;;;;;21.54;73.42;100528.84;4995539;28;45886;-77
2022/08/22 07:14:16;;;;;;;;;1.67;1.00;;;;;21.79;73.67;100545.31;4995273;28;45630;-73
2022/08/22 07:16:50;;;;;;;;;2.00;2.00;;;;;21.93;72.96;100551.28;4995896;28;45594;-77
2022/08/22 07:19:34;;;;;;;;;1.00;1.00;;;;;22.08;71.83;100551.91;5012597;28;45571;-72
2022/08/22 07:22:13;;;;;;;;;1.33;1.00;;;;;22.11;72.06;100541.22;4995997;28;46402;-73
2022/08/22 07:24:46;;;;;;;;;1.00;1.00;;;;;22.00;72.13;100536.97;4972418;28;45423;-72
2022/08/22 07:27:30;;;;;;;;;1.00;1.00;;;;;21.94;72.43;100533.53;5013822;28;45684;-72
2022/08/22 07:30:07;;;;;;;;;1.00;1.00;;;;;21.97;72.94;100545.00;5009861;28;45622;-71
2022/08/22 07:33:02;;;;;;;;;1.00;0.67;;;;;21.83;72.77;100531.94;5014276;28;45598;-71
2022/08/22 07:35:34;;;;;;;;;0.67;0.00;;;;;21.76;73.07;100524.06;5016306;28;45521;-70
2022/08/22 07:38:13;;;;;;;;;0.33;0.00;;;;;21.83;73.51;100547.88;5015148;28;45852;-71
2022/08/22 07:40:59;;;;;;;;;0.00;0.00;;;;;21.95;73.77;100545.94;5012711;28;45438;-72
2022/08/22 07:43:34;;;;;;;;;1.00;1.00;;;;;21.81;73.75;100527.53;5016233;28;46247;-70
2022/08/22 07:46:27;;;;;;;;;0.00;0.00;;;;;21.97;74.00;100536.16;5012316;28;45506;-72
2022/08/22 07:49:15;;;;;;;;;3.33;2.67;;;;;22.13;73.58;100521.66;5014654;28;45653;-72
2022/08/22 07:51:45;;;;;;;;;6.00;4.67;;;;;22.38;73.87;100543.41;5013890;28;45480;-71
2022/08/22 07:54:20;;;;;;;;;3.00;3.00;;;;;22.39;73.73;100531.84;5012079;28;45525;-71
2022/08/22 07:57:00;;;;;;;;;5.33;5.00;;;;;22.49;73.39;100545.00;5014526;28;45511;-72
2022/08/22 07:59:27;;;;;;;;;1.00;1.00;;;;;22.43;73.78;100548.66;5013526;28;45546;-71
2022/08/22 08:02:00;;;;;;;;;0.00;0.00;;;;;22.37;73.82;100539.00;5015558;28;45661;-72
2022/08/22 08:04:31;;;;;;;;;0.00;0.00;;;;;22.52;73.07;100547.56;5014746;28;46651;-71
2022/08/22 08:06:59;;;;;;;;;0.00;0.00;;;;;22.83;72.66;100558.50;5030372;28;45541;-71
2022/08/22 08:09:36;;;;;;;;;0.00;0.00;;;;;23.09;71.49;100547.34;5014697;28;45359;-74
2022/08/22 08:12:04;;;;;;;;;0.00;0.00;;;;;23.19;71.23;100546.22;5014858;28;45534;-71
2022/08/22 08:14:31;;;;;;;;;0.00;0.00;;;;;23.17;70.25;100521.38;5014967;28;45835;-72
2022/08/22 08:17:14;;;;;;;;;0.00;0.00;;;;;23.38;70.79;100553.81;5013866;28;45578;-74
2022/08/22 08:19:42;;;;;;;;;0.00;0.00;;;;;23.25;70.01;100529.22;5028960;28;45493;-72
2022/08/22 08:22:15;;;;;;;;;0.00;0.00;;;;;23.22;70.56;100535.50;5030073;28;45716;-72
2022/08/22 08:24:43;;;;;;;;;0.00;0.00;;;;;23.09;69.16;100525.16;5014280;28;45593;-73
2022/08/22 08:30:23;;;;;;;;;0.00;0.00;;;;;23.04;70.19;100522.59;5012873;28;45581;-73
2022/08/22 08:32:58;;;;;;;;;0.00;0.00;;;;;23.30;70.96;100542.44;5012484;28;45575;-72
2022/08/22 08:35:27;;;;;;;;;0.00;0.00;;;;;23.45;69.63;100551.88;5014404;28;46170;-73
2022/08/22 08:37:56;;;;;;;;;1.00;0.00;;;;;23.57;69.78;100551.59;5011295;28;45415;-72
2022/08/22 08:40:31;;;;;;;;;0.33;0.00;;;;;23.69;69.04;100553.94;5014662;28;45420;-72
2022/08/22 08:43:26;;;;;;;;;1.67;0.00;;;;;23.71;69.28;100553.94;5013452;28;45581;-71
2022/08/22 08:46:06;;;;;;;;;0.00;0.00;;;;;23.71;69.68;100556.59;5014933;28;47181;-74
2022/08/22 08:48:44;;;;;;;;;1.00;0.00;;;;;23.65;69.80;100559.41;5016073;28;45217;-74
2022/08/22 08:51:24;;;;;;;;;0.00;0.00;;;;;23.53;69.41;100556.09;5014114;28;45525;-71
2022/08/22 08:54:29;;;;;;;;;0.00;0.00;;;;;23.69;68.94;100566.41;5015941;28;45309;-73
2022/08/22 08:56:58;;;;;;;;;0.67;0.00;;;;;24.07;68.20;100575.31;5014843;28;45335;-72
2022/08/22 09:00:01;;;;;;;;;0.00;0.00;;;;;24.49;67.21;100564.41;5015268;28;45725;-71
2022/08/22 09:03:09;;;;;;;;;0.33;0.00;;;;;24.97;65.50;100559.50;5016111;28;45324;-73
2022/08/22 09:05:47;;;;;;;;;0.00;0.00;;;;;25.45;63.09;100576.81;4994450;28;45512;-71
2022/08/22 09:08:41;;;;;;;;;0.00;0.00;;;;;25.83;63.35;100576.53;5033266;28;45539;-73
2022/08/22 09:11:31;;;;;;;;;3.00;2.33;;;;;26.15;62.02;100575.47;5018048;28;45532;-71
2022/08/22 09:14:22;;;;;;;;;0.00;0.00;;;;;26.31;61.00;100571.34;5016332;28;45616;-72
2022/08/22 09:17:07;;;;;;;;;0.00;0.00;;;;;26.57;61.40;100569.53;5020545;28;45570;-72
2022/08/22 09:20:10;;;;;;;;;0.00;0.00;;;;;26.92;60.10;100575.47;5040063;28;47573;-71
2022/08/22 09:23:13;;;;;;;;;0.00;0.00;;;;;27.06;58.27;100569.53;5017348;28;45294;-71
2022/08/22 09:25:44;;;;;;;;;0.00;0.00;;;;;27.27;58.86;100571.44;5008334;28;45590;-72
2022/08/22 09:28:38;;;;;;;;;0.00;0.00;;;;;27.44;56.32;100570.78;5018650;28;45517;-72
2022/08/22 09:31:28;;;;;;;;;0.00;0.00;;;;;27.69;57.19;100573.34;5001403;28;46149;-71
2022/08/22 09:34:04;;;;;;;;;0.00;0.00;;;;;27.74;55.80;100573.16;5017416;28;45397;-73
2022/08/22 09:37:00;;;;;;;;;10.33;10.33;;;;;27.72;55.96;100578.59;5016781;28;45669;-74
2022/08/22 09:39:51;;;;;;;;;8.33;7.67;;;;;27.72;56.07;100573.22;5015335;28;45916;-73
2022/08/22 09:42:41;;;;;;;;;3.00;3.00;;;;;27.86;56.16;100556.56;5016214;28;45585;-75
2022/08/22 09:45:18;;;;;;;;;1.00;1.00;;;;;28.38;54.05;100571.41;5012174;28;45881;-72
2022/08/22 09:47:58;;;;;;;;;0.00;0.00;;;;;28.32;52.91;100474.00;5015233;28;45501;-72
2022/08/22 09:50:48;;;;;;;;;0.00;0.00;;;;;29.31;50.93;100567.19;5015198;28;45482;-74
2022/08/22 09:53:31;;;;;;;;;0.00;0.00;;;;;29.77;51.32;100566.81;5016552;28;46209;-73
2022/08/22 09:56:09;;;;;;;;;0.00;0.00;;;;;29.83;51.00;100569.19;5017232;28;45807;-72
2022/08/22 09:59:10;;;;;;;;;1.67;1.00;;;;;29.64;50.52;100563.81;5016883;28;46109;-74
2022/08/22 10:01:49;;;;;;;;;2.00;1.00;;;;;29.66;50.02;100563.72;5015160;28;45719;-76
2022/08/22 10:04:26;;;;;;;;;0.67;0.67;;;;;29.51;50.80;100558.16;5015613;28;45615;-75
2022/08/22 10:07:10;;;;;;;;;0.67;0.00;;;;;29.36;51.42;100569.66;5011376;28;45575;-75
2022/08/22 10:09:51;;;;;;;;;2.00;1.67;;;;;29.43;50.69;100571.13;5014994;28;45585;-75
2022/08/22 10:12:28;;;;;;;;;1.00;0.00;;;;;29.41;51.00;100527.25;5014351;28;45344;-75
2022/08/22 10:14:57;;;;;;;;;6.33;5.67;;;;;29.61;50.06;100568.50;5012616;28;46260;-76
2022/08/22 10:17:35;;;;;;;;;8.33;7.33;;;;;29.28;50.46;100553.88;5016158;28;45447;-75
2022/08/22 10:20:13;;;;;;;;;2.67;1.67;;;;;28.92;50.62;100567.22;5015252;28;45462;-82
2022/08/22 10:22:47;;;;;;;;;1.00;0.33;;;;;28.41;51.40;100542.59;5015254;28;45468;-75
2022/08/22 10:25:34;;;;;;;;;7.67;6.67;;;;;28.30;51.83;100558.31;5022035;28;46328;-75
2022/08/22 10:28:36;;;;;;;;;0.67;0.67;;;;;28.36;51.96;100580.41;5014556;28;45572;-75
2022/08/22 10:31:21;;;;;;;;;1.67;1.33;;;;;28.20;52.62;100576.63;5001052;28;45727;-75
2022/08/22 10:34:05;;;;;;;;;1.00;1.00;;;;;28.00;52.86;100556.00;5015083;28;45606;-74
2022/08/22 10:36:57;;;;;;;;;1.00;0.00;;;;;27.56;52.64;100502.34;5014633;28;45651;-74
2022/08/22 10:39:29;;;;;;;;;1.00;1.00;;;;;27.85;52.52;100560.16;4996672;28;45659;-75
2022/08/22 10:42:18;;;;;;;;;0.00;0.00;;;;;27.73;52.22;100541.88;5011355;28;45818;-75
2022/08/22 10:45:02;;;;;;;;;2.00;1.00;;;;;28.14;52.07;100576.91;5012578;28;45704;-75
2022/08/22 10:48:02;;;;;;;;;4.33;3.67;;;;;28.23;51.92;100576.53;5012665;28;46264;-75
2022/08/22 10:50:34;;;;;;;;;1.00;1.00;;;;;28.33;51.46;100583.25;5006833;28;45343;-76
2022/08/22 10:53:34;;;;;;;;;1.00;1.00;;;;;28.02;51.16;100538.00;5016378;28;46134;-75
2022/08/22 10:56:12;;;;;;;;;8.67;8.67;;;;;27.74;52.35;100576.72;5014485;28;45728;-75
2022/08/22 10:58:54;;;;;;;;;1.00;1.00;;;;;27.47;52.78;100514.31;5015004;28;47147;-75
2022/08/22 11:01:25;;;;;;;;;0.33;0.33;;;;;27.90;51.85;100563.56;5015769;28;45490;-76
2022/08/22 11:04:05;;;;;;;;;2.00;2.00;;;;;28.19;51.38;100550.69;5015145;28;45499;-75
2022/08/22 11:06:45;;;;;;;;;1.33;1.00;;;;;28.46;50.92;100547.75;5016215;28;45475;-76
2022/08/22 11:09:32;;;;;;;;;2.00;1.00;;;;;29.24;50.55;100562.19;5015911;28;45556;-78
2022/08/22 11:12:29;;;;;;;;;0.67;0.67;;;;;30.10;47.34;100563.34;5012305;28;45572;-78
2022/08/22 11:15:06;;;;;;;;;1.00;1.00;;;;;30.65;46.79;100555.09;5003265;28;45584;-79
2022/08/22 11:17:50;;;;;;;;;2.00;2.00;;;;;30.87;45.88;100556.63;5015104;28;45349;-82
2022/08/22 11:20:36;;;;;;;;;2.00;2.00;;;;;30.73;45.86;100555.56;5014679;28;45561;-77
2022/08/22 11:23:18;;;;;;;;;2.67;1.67;;;;;30.27;46.46;100536.41;5016979;28;45260;-76
2022/08/22 11:26:01;;;;;;;;;4.33;2.67;;;;;30.09;47.43;100557.09;5026510;28;45305;-76
2022/08/22 11:28:36;;;;;;;;;1.67;1.33;;;;;29.92;47.82;100557.97;5029169;28;45540;-75
2022/08/22 11:31:20;;;;;;;;;2.00;2.00;;;;;29.61;48.20;100550.50;5015990;28;45471;-75
2022/08/22 11:34:02;;;;;;;;;1.00;1.00;;;;;29.18;49.49;100531.06;5011501;28;45459;-74
2022/08/22 11:36:53;;;;;;;;;0.00;0.00;;;;;28.79;49.83;100515.84;5022704;28;45371;-75
2022/08/22 11:39:43;;;;;;;;;1.00;1.00;;;;;28.62;49.58;100507.66;5016504;28;45359;-78
2022/08/22 11:42:21;;;;;;;;;2.00;2.00;;;;;28.86;50.31;100552.22;5013290;28;48000;-76
2022/08/22 11:44:57;;;;;;;;;2.00;1.00;;;;;28.67;50.48;100559.38;5015639;28;45422;-76
2022/08/22 11:47:29;;;;;;;;;0.33;0.33;;;;;28.10;50.86;100489.34;5015926;28;45564;-75
2022/08/22 11:49:56;;;;;;;;;1.33;1.33;;;;;28.39;50.97;100555.19;5014267;28;46337;-74
2022/08/22 11:52:25;;;;;;;;;1.00;1.00;;;;;28.42;50.93;100551.53;5015671;28;46282;-76
2022/08/22 11:55:44;;;;;;;;;1.00;1.00;;;;;28.43;50.79;100564.00;5015337;28;45356;-76
2022/08/22 11:58:25;;;;;;;;;2.00;0.00;;;;;28.25;50.94;100565.69;4972483;28;45938;-76
2022/08/22 12:00:55;;;;;;;;;2.00;1.00;;;;;28.13;51.37;100548.28;4956796;28;45556;-77
2022/08/22 12:03:45;;;;;;;;;1.33;1.00;;;;;28.08;50.39;100558.38;4997725;28;46489;-76
2022/08/22 12:06:19;;;;;;;;;1.00;1.00;;;;;28.17;51.00;100566.00;5015398;28;45491;-75
2022/08/22 12:08:49;;;;;;;;;1.00;1.00;;;;;28.26;50.62;100562.94;5015293;28;45509;-76
2022/08/22 12:11:41;;;;;;;;;1.00;0.33;;;;;28.27;50.47;100548.59;5014073;28;45590;-75
2022/08/22 12:14:23;;;;;;;;;1.00;1.00;;;;;28.01;50.17;100492.44;5014367;28;45594;-77
2022/08/22 12:17:10;;;;;;;;;0.00;0.00;;;;;28.46;49.98;100561.19;5014923;28;45292;-78
2022/08/22 12:20:01;;;;;;;;;0.00;0.00;;;;;28.48;49.85;100565.56;5014463;28;45354;-81
2022/08/22 12:22:36;;;;;;;;;0.00;0.00;;;;;28.06;50.13;100487.75;5013319;28;45417;-79
2022/08/22 12:25:26;;;;;;;;;0.00;0.00;;;;;28.55;50.04;100560.81;5014565;28;46729;-73
2022/08/22 12:28:02;;;;;;;;;0.00;0.00;;;;;28.32;50.40;100503.56;5015637;28;45367;-75
2022/08/22 12:30:50;;;;;;;;;2.00;2.00;;;;;28.72;49.27;100560.94;5014516;28;45632;-74
2022/08/22 12:33:25;;;;;;;;;1.00;1.00;;;;;28.94;49.49;100555.44;5008693;28;45664;-75
2022/08/22 12:36:19;;;;;;;;;2.67;2.00;;;;;29.29;48.66;100547.56;5008536;28;46480;-74
2022/08/22 12:39:23;;;;;;;;;1.33;1.00;;;;;29.47;47.86;100553.88;5011263;28;45891;-74
2022/08/22 12:42:26;;;;;;;;;0.00;0.00;;;;;29.65;47.42;100548.53;5010268;28;45393;-75